sensor_id;sensor_type;location;lat;lon;timestamp;P1;durP1;ratioP1;P2;durP2;ratioP2
69847;SDS011;57143;55.940;37.496;2022-07-10T00:00:24;18.08;;;9.07;;
69847;SDS011;57143;55.940;37.496;2022-07-10T00:02:52;17.42;;;10.32;;
69847;SDS011;57143;55.940;37.496;2022-07-10T00:05:20;14.27;;;8.32;;
69847;SDS011;57143;55.940;37.496;2022-07-10T00:07:48;14.48;;;7.88;;
69847;SDS011;57143;55.940;37.496;2022-07-10T00:10:16;15.27;;;9.20;;
69847;SDS011;57143;55.940;37.496;2022-07-10T00:12:43;15.02;;;9.50;;
69847;SDS011;57143;55.940;37.496;2022-07-10T00:15:12;16.02;;;10.00;;
69847;SDS011;57143;55.940;37.496;2022-07-10T00:17:39;15.63;;;10.07;;
69847;SDS011;57143;55.940;37.496;2022-07-10T00:20:07;16.70;;;10.32;;
69847;SDS011;57143;55.940;37.496;2022-07-10T00:22:35;16.30;;;10.47;;
69847;SDS011;57143;55.940;37.496;2022-07-10T00:25:03;18.50;;;10.45;;
69847;SDS011;57143;55.940;37.496;2022-07-10T00:27:31;15.23;;;9.18;;
69847;SDS011;57143;55.940;37.496;2022-07-10T00:29:58;15.73;;;9.73;;
69847;SDS011;57143;55.940;37.496;2022-07-10T00:32:26;14.20;;;8.55;;
69847;SDS011;57143;55.940;37.496;2022-07-10T00:34:53;14.17;;;8.50;;
69847;SDS011;57143;55.940;37.496;2022-07-10T00:37:20;11.93;;;6.90;;
69847;SDS011;57143;55.940;37.496;2022-07-10T00:39:48;11.48;;;7.50;;
69847;SDS011;57143;55.940;37.496;2022-07-10T00:42:15;12.90;;;7.68;;
69847;SDS011;57143;55.940;37.496;2022-07-10T00:44:42;13.30;;;7.60;;
69847;SDS011;57143;55.940;37.496;2022-07-10T00:47:10;11.33;;;7.33;;
69847;SDS011;57143;55.940;37.496;2022-07-10T00:49:40;12.60;;;7.72;;
69847;SDS011;57143;55.940;37.496;2022-07-10T00:52:08;10.18;;;6.45;;
69847;SDS011;57143;55.940;37.496;2022-07-10T00:54:37;11.82;;;6.75;;
69847;SDS011;57143;55.940;37.496;2022-07-10T00:57:07;11.38;;;7.60;;
69847;SDS011;57143;55.940;37.496;2022-07-10T00:59:35;12.67;;;7.67;;
69847;SDS011;57143;55.940;37.496;2022-07-10T01:02:03;12.73;;;7.57;;
69847;SDS011;57143;55.940;37.496;2022-07-10T01:04:31;12.73;;;7.63;;
69847;SDS011;57143;55.940;37.496;2022-07-10T01:07:00;14.30;;;7.90;;
69847;SDS011;57143;55.940;37.496;2022-07-10T01:09:27;15.32;;;7.95;;
69847;SDS011;57143;55.940;37.496;2022-07-10T01:11:55;11.70;;;7.27;;
69847;SDS011;57143;55.940;37.496;2022-07-10T01:14:24;13.20;;;7.40;;
69847;SDS011;57143;55.940;37.496;2022-07-10T01:16:52;11.27;;;6.97;;
69847;SDS011;57143;55.940;37.496;2022-07-10T01:19:19;12.60;;;6.97;;
69847;SDS011;57143;55.940;37.496;2022-07-10T01:21:48;11.95;;;6.97;;
69847;SDS011;57143;55.940;37.496;2022-07-10T01:24:15;10.50;;;6.10;;
69847;SDS011;57143;55.940;37.496;2022-07-10T01:26:42;9.65;;;5.70;;
69847;SDS011;57143;55.940;37.496;2022-07-10T01:29:10;10.90;;;6.03;;
69847;SDS011;57143;55.940;37.496;2022-07-10T01:31:37;9.95;;;5.25;;
69847;SDS011;57143;55.940;37.496;2022-07-10T01:34:06;10.23;;;5.70;;
69847;SDS011;57143;55.940;37.496;2022-07-10T01:36:34;9.57;;;5.30;;
69847;SDS011;57143;55.940;37.496;2022-07-10T01:39:03;9.35;;;5.18;;
69847;SDS011;57143;55.940;37.496;2022-07-10T01:41:31;12.82;;;6.38;;
69847;SDS011;57143;55.940;37.496;2022-07-10T01:43:58;9.93;;;5.75;;
69847;SDS011;57143;55.940;37.496;2022-07-10T01:46:25;11.95;;;6.43;;
69847;SDS011;57143;55.940;37.496;2022-07-10T01:48:52;11.23;;;5.77;;
69847;SDS011;57143;55.940;37.496;2022-07-10T01:51:19;10.73;;;5.45;;
69847;SDS011;57143;55.940;37.496;2022-07-10T01:53:47;12.65;;;6.03;;
69847;SDS011;57143;55.940;37.496;2022-07-10T01:56:16;10.70;;;5.22;;
69847;SDS011;57143;55.940;37.496;2022-07-10T01:58:43;11.38;;;5.78;;
69847;SDS011;57143;55.940;37.496;2022-07-10T02:01:11;9.83;;;4.80;;
69847;SDS011;57143;55.940;37.496;2022-07-10T02:03:38;11.55;;;4.85;;
69847;SDS011;57143;55.940;37.496;2022-07-10T02:06:22;11.05;;;5.30;;
69847;SDS011;57143;55.940;37.496;2022-07-10T02:08:49;9.85;;;4.82;;
69847;SDS011;57143;55.940;37.496;2022-07-10T02:11:18;9.07;;;5.25;;
69847;SDS011;57143;55.940;37.496;2022-07-10T02:13:45;11.27;;;5.10;;
69847;SDS011;57143;55.940;37.496;2022-07-10T02:16:12;9.40;;;5.07;;
69847;SDS011;57143;55.940;37.496;2022-07-10T02:18:40;10.65;;;5.57;;
69847;SDS011;57143;55.940;37.496;2022-07-10T02:21:07;9.85;;;5.13;;
69847;SDS011;57143;55.940;37.496;2022-07-10T02:23:34;8.02;;;4.82;;
69847;SDS011;57143;55.940;37.496;2022-07-10T02:26:01;9.00;;;4.90;;
69847;SDS011;57143;55.940;37.496;2022-07-10T02:28:30;10.43;;;6.10;;
69847;SDS011;57143;55.940;37.496;2022-07-10T02:30:57;9.70;;;5.40;;
69847;SDS011;57143;55.940;37.496;2022-07-10T02:33:24;10.25;;;5.63;;
69847;SDS011;57143;55.940;37.496;2022-07-10T02:35:51;9.85;;;5.10;;
69847;SDS011;57143;55.940;37.496;2022-07-10T02:38:18;10.83;;;4.67;;
69847;SDS011;57143;55.940;37.496;2022-07-10T02:40:46;13.00;;;7.50;;
69847;SDS011;57143;55.940;37.496;2022-07-10T02:43:13;11.25;;;6.30;;
69847;SDS011;57143;55.940;37.496;2022-07-10T02:45:41;8.07;;;4.45;;
69847;SDS011;57143;55.940;37.496;2022-07-10T02:48:08;8.65;;;4.18;;
69847;SDS011;57143;55.940;37.496;2022-07-10T02:50:35;9.40;;;4.87;;
69847;SDS011;57143;55.940;37.496;2022-07-10T02:53:02;7.18;;;4.05;;
69847;SDS011;57143;55.940;37.496;2022-07-10T02:55:29;8.30;;;4.72;;
69847;SDS011;57143;55.940;37.496;2022-07-10T02:57:57;9.30;;;4.50;;
69847;SDS011;57143;55.940;37.496;2022-07-10T03:00:25;8.68;;;4.65;;
69847;SDS011;57143;55.940;37.496;2022-07-10T03:02:54;8.33;;;4.20;;
69847;SDS011;57143;55.940;37.496;2022-07-10T03:05:21;10.40;;;4.65;;
69847;SDS011;57143;55.940;37.496;2022-07-10T03:07:49;10.05;;;5.35;;
69847;SDS011;57143;55.940;37.496;2022-07-10T03:10:16;9.38;;;5.07;;
69847;SDS011;57143;55.940;37.496;2022-07-10T03:12:43;10.43;;;5.35;;
69847;SDS011;57143;55.940;37.496;2022-07-10T03:15:10;9.80;;;5.37;;
69847;SDS011;57143;55.940;37.496;2022-07-10T03:17:37;11.38;;;5.03;;
69847;SDS011;57143;55.940;37.496;2022-07-10T03:20:07;9.25;;;5.13;;
69847;SDS011;57143;55.940;37.496;2022-07-10T03:22:35;8.30;;;4.50;;
69847;SDS011;57143;55.940;37.496;2022-07-10T03:25:02;9.93;;;5.15;;
69847;SDS011;57143;55.940;37.496;2022-07-10T03:27:30;8.17;;;4.37;;
69847;SDS011;57143;55.940;37.496;2022-07-10T03:29:57;9.48;;;5.07;;
69847;SDS011;57143;55.940;37.496;2022-07-10T03:32:24;7.65;;;4.32;;
69847;SDS011;57143;55.940;37.496;2022-07-10T03:34:51;8.52;;;4.30;;
69847;SDS011;57143;55.940;37.496;2022-07-10T03:37:19;8.07;;;4.60;;
69847;SDS011;57143;55.940;37.496;2022-07-10T03:39:47;9.37;;;4.70;;
69847;SDS011;57143;55.940;37.496;2022-07-10T03:42:13;9.68;;;4.68;;
69847;SDS011;57143;55.940;37.496;2022-07-10T03:44:41;9.02;;;4.45;;
69847;SDS011;57143;55.940;37.496;2022-07-10T03:47:08;8.40;;;4.05;;
69847;SDS011;57143;55.940;37.496;2022-07-10T03:49:35;8.13;;;4.47;;
69847;SDS011;57143;55.940;37.496;2022-07-10T03:52:04;10.80;;;4.50;;
69847;SDS011;57143;55.940;37.496;2022-07-10T03:54:32;8.57;;;4.18;;
69847;SDS011;57143;55.940;37.496;2022-07-10T03:57:00;8.75;;;4.50;;
69847;SDS011;57143;55.940;37.496;2022-07-10T03:59:44;7.35;;;3.67;;
69847;SDS011;57143;55.940;37.496;2022-07-10T04:02:11;10.05;;;4.35;;
69847;SDS011;57143;55.940;37.496;2022-07-10T04:04:38;8.93;;;4.90;;
69847;SDS011;57143;55.940;37.496;2022-07-10T04:07:05;9.90;;;4.38;;
69847;SDS011;57143;55.940;37.496;2022-07-10T04:09:34;10.02;;;4.57;;
69847;SDS011;57143;55.940;37.496;2022-07-10T04:12:01;7.63;;;4.18;;
69847;SDS011;57143;55.940;37.496;2022-07-10T04:14:28;7.05;;;4.20;;
69847;SDS011;57143;55.940;37.496;2022-07-10T04:16:55;8.73;;;4.43;;
69847;SDS011;57143;55.940;37.496;2022-07-10T04:19:22;7.15;;;4.35;;
69847;SDS011;57143;55.940;37.496;2022-07-10T04:21:49;8.32;;;4.65;;
69847;SDS011;57143;55.940;37.496;2022-07-10T04:24:16;7.93;;;4.10;;
69847;SDS011;57143;55.940;37.496;2022-07-10T04:26:44;9.10;;;4.47;;
69847;SDS011;57143;55.940;37.496;2022-07-10T04:29:11;7.47;;;3.87;;
69847;SDS011;57143;55.940;37.496;2022-07-10T04:31:38;7.38;;;4.28;;
69847;SDS011;57143;55.940;37.496;2022-07-10T04:34:05;8.05;;;4.15;;
69847;SDS011;57143;55.940;37.496;2022-07-10T04:36:32;7.93;;;4.50;;
69847;SDS011;57143;55.940;37.496;2022-07-10T04:38:59;9.55;;;4.60;;
69847;SDS011;57143;55.940;37.496;2022-07-10T04:41:26;9.37;;;4.73;;
69847;SDS011;57143;55.940;37.496;2022-07-10T04:43:55;10.10;;;4.45;;
69847;SDS011;57143;55.940;37.496;2022-07-10T04:46:22;9.93;;;5.03;;
69847;SDS011;57143;55.940;37.496;2022-07-10T04:48:49;9.63;;;4.28;;
69847;SDS011;57143;55.940;37.496;2022-07-10T04:51:17;8.77;;;4.53;;
69847;SDS011;57143;55.940;37.496;2022-07-10T04:53:44;10.03;;;4.87;;
69847;SDS011;57143;55.940;37.496;2022-07-10T04:56:11;9.40;;;4.82;;
69847;SDS011;57143;55.940;37.496;2022-07-10T04:58:38;8.10;;;4.60;;
69847;SDS011;57143;55.940;37.496;2022-07-10T05:01:06;10.73;;;5.25;;
69847;SDS011;57143;55.940;37.496;2022-07-10T05:03:33;9.60;;;5.70;;
69847;SDS011;57143;55.940;37.496;2022-07-10T05:06:00;9.57;;;4.90;;
69847;SDS011;57143;55.940;37.496;2022-07-10T05:08:27;9.40;;;4.65;;
69847;SDS011;57143;55.940;37.496;2022-07-10T05:10:54;8.15;;;4.72;;
69847;SDS011;57143;55.940;37.496;2022-07-10T05:13:22;8.88;;;4.60;;
69847;SDS011;57143;55.940;37.496;2022-07-10T05:15:49;9.18;;;5.30;;
69847;SDS011;57143;55.940;37.496;2022-07-10T05:18:17;10.67;;;5.13;;
69847;SDS011;57143;55.940;37.496;2022-07-10T05:20:45;10.50;;;4.97;;
69847;SDS011;57143;55.940;37.496;2022-07-10T05:23:13;10.98;;;5.80;;
69847;SDS011;57143;55.940;37.496;2022-07-10T05:25:40;9.63;;;5.32;;
69847;SDS011;57143;55.940;37.496;2022-07-10T05:28:07;9.25;;;4.90;;
69847;SDS011;57143;55.940;37.496;2022-07-10T05:30:34;9.30;;;5.37;;
69847;SDS011;57143;55.940;37.496;2022-07-10T05:33:01;9.95;;;5.15;;
69847;SDS011;57143;55.940;37.496;2022-07-10T05:35:30;10.63;;;5.50;;
69847;SDS011;57143;55.940;37.496;2022-07-10T05:37:57;9.27;;;5.40;;
69847;SDS011;57143;55.940;37.496;2022-07-10T05:40:24;8.13;;;5.15;;
69847;SDS011;57143;55.940;37.496;2022-07-10T05:42:51;9.00;;;4.83;;
69847;SDS011;57143;55.940;37.496;2022-07-10T05:45:18;9.18;;;5.30;;
69847;SDS011;57143;55.940;37.496;2022-07-10T05:47:45;10.05;;;5.85;;
69847;SDS011;57143;55.940;37.496;2022-07-10T05:50:12;9.77;;;5.75;;
69847;SDS011;57143;55.940;37.496;2022-07-10T05:52:40;10.88;;;5.72;;
69847;SDS011;57143;55.940;37.496;2022-07-10T05:55:08;8.93;;;5.23;;
69847;SDS011;57143;55.940;37.496;2022-07-10T05:57:35;8.52;;;5.43;;
69847;SDS011;57143;55.940;37.496;2022-07-10T06:00:03;9.30;;;6.00;;
69847;SDS011;57143;55.940;37.496;2022-07-10T06:02:31;8.40;;;5.57;;
69847;SDS011;57143;55.940;37.496;2022-07-10T06:04:58;9.30;;;5.43;;
69847;SDS011;57143;55.940;37.496;2022-07-10T06:07:26;8.03;;;5.50;;
69847;SDS011;57143;55.940;37.496;2022-07-10T06:09:55;10.07;;;5.80;;
69847;SDS011;57143;55.940;37.496;2022-07-10T06:12:22;10.77;;;6.13;;
69847;SDS011;57143;55.940;37.496;2022-07-10T06:14:49;11.13;;;6.80;;
69847;SDS011;57143;55.940;37.496;2022-07-10T06:17:17;9.88;;;6.55;;
69847;SDS011;57143;55.940;37.496;2022-07-10T06:19:44;10.73;;;6.03;;
69847;SDS011;57143;55.940;37.496;2022-07-10T06:22:11;12.38;;;6.05;;
69847;SDS011;57143;55.940;37.496;2022-07-10T06:24:56;9.57;;;5.72;;
69847;SDS011;57143;55.940;37.496;2022-07-10T06:27:24;9.85;;;6.05;;
69847;SDS011;57143;55.940;37.496;2022-07-10T06:29:51;11.23;;;6.47;;
69847;SDS011;57143;55.940;37.496;2022-07-10T06:32:19;9.23;;;6.20;;
69847;SDS011;57143;55.940;37.496;2022-07-10T06:34:46;9.60;;;6.35;;
69847;SDS011;57143;55.940;37.496;2022-07-10T06:37:13;9.77;;;6.68;;
69847;SDS011;57143;55.940;37.496;2022-07-10T06:39:40;11.10;;;6.97;;
69847;SDS011;57143;55.940;37.496;2022-07-10T06:42:08;11.13;;;6.88;;
69847;SDS011;57143;55.940;37.496;2022-07-10T06:44:35;10.07;;;6.77;;
69847;SDS011;57143;55.940;37.496;2022-07-10T06:47:02;9.00;;;6.60;;
69847;SDS011;57143;55.940;37.496;2022-07-10T06:49:47;11.30;;;6.90;;
69847;SDS011;57143;55.940;37.496;2022-07-10T06:52:15;9.50;;;7.07;;
69847;SDS011;57143;55.940;37.496;2022-07-10T06:54:42;11.20;;;7.13;;
69847;SDS011;57143;55.940;37.496;2022-07-10T06:57:11;9.93;;;6.70;;
69847;SDS011;57143;55.940;37.496;2022-07-10T06:59:38;10.57;;;7.28;;
69847;SDS011;57143;55.940;37.496;2022-07-10T07:02:06;10.63;;;7.53;;
69847;SDS011;57143;55.940;37.496;2022-07-10T07:04:33;10.13;;;7.00;;
69847;SDS011;57143;55.940;37.496;2022-07-10T07:07:01;11.27;;;7.18;;
69847;SDS011;57143;55.940;37.496;2022-07-10T07:09:29;11.13;;;7.90;;
69847;SDS011;57143;55.940;37.496;2022-07-10T07:11:56;11.05;;;7.70;;
69847;SDS011;57143;55.940;37.496;2022-07-10T07:14:24;12.32;;;7.80;;
69847;SDS011;57143;55.940;37.496;2022-07-10T07:16:52;11.48;;;7.70;;
69847;SDS011;57143;55.940;37.496;2022-07-10T07:19:26;11.23;;;7.07;;
69847;SDS011;57143;55.940;37.496;2022-07-10T07:22:20;12.80;;;7.30;;
69847;SDS011;57143;55.940;37.496;2022-07-10T07:25:04;12.38;;;7.57;;
69847;SDS011;57143;55.940;37.496;2022-07-10T07:27:32;9.30;;;6.47;;
69847;SDS011;57143;55.940;37.496;2022-07-10T07:30:05;13.05;;;7.53;;
69847;SDS011;57143;55.940;37.496;2022-07-10T07:32:33;11.50;;;7.50;;
69847;SDS011;57143;55.940;37.496;2022-07-10T07:35:01;11.57;;;7.37;;
69847;SDS011;57143;55.940;37.496;2022-07-10T07:37:34;11.15;;;6.80;;
69847;SDS011;57143;55.940;37.496;2022-07-10T07:40:02;11.38;;;6.53;;
69847;SDS011;57143;55.940;37.496;2022-07-10T07:42:30;10.50;;;7.07;;
69847;SDS011;57143;55.940;37.496;2022-07-10T07:44:57;10.45;;;6.50;;
69847;SDS011;57143;55.940;37.496;2022-07-10T07:47:26;10.67;;;6.60;;
69847;SDS011;57143;55.940;37.496;2022-07-10T07:49:53;8.68;;;5.93;;
69847;SDS011;57143;55.940;37.496;2022-07-10T07:52:20;10.25;;;6.30;;
69847;SDS011;57143;55.940;37.496;2022-07-10T07:54:47;12.48;;;6.20;;
69847;SDS011;57143;55.940;37.496;2022-07-10T07:57:16;7.90;;;5.35;;
69847;SDS011;57143;55.940;37.496;2022-07-10T07:59:44;11.73;;;6.00;;
69847;SDS011;57143;55.940;37.496;2022-07-10T08:02:11;10.07;;;6.07;;
69847;SDS011;57143;55.940;37.496;2022-07-10T08:04:39;10.40;;;6.88;;
69847;SDS011;57143;55.940;37.496;2022-07-10T08:07:06;9.20;;;5.95;;
69847;SDS011;57143;55.940;37.496;2022-07-10T08:09:33;11.55;;;6.88;;
69847;SDS011;57143;55.940;37.496;2022-07-10T08:12:00;10.57;;;6.40;;
69847;SDS011;57143;55.940;37.496;2022-07-10T08:14:28;10.98;;;6.57;;
69847;SDS011;57143;55.940;37.496;2022-07-10T08:16:55;13.77;;;6.68;;
69847;SDS011;57143;55.940;37.496;2022-07-10T08:19:22;14.13;;;6.82;;
69847;SDS011;57143;55.940;37.496;2022-07-10T08:21:51;10.50;;;6.88;;
69847;SDS011;57143;55.940;37.496;2022-07-10T08:24:18;10.63;;;7.00;;
69847;SDS011;57143;55.940;37.496;2022-07-10T08:26:45;13.77;;;7.25;;
69847;SDS011;57143;55.940;37.496;2022-07-10T08:29:12;13.18;;;7.68;;
69847;SDS011;57143;55.940;37.496;2022-07-10T08:31:40;11.88;;;7.00;;
69847;SDS011;57143;55.940;37.496;2022-07-10T08:34:07;15.02;;;7.35;;
69847;SDS011;57143;55.940;37.496;2022-07-10T08:36:34;11.77;;;6.90;;
69847;SDS011;57143;55.940;37.496;2022-07-10T08:39:02;12.85;;;7.65;;
69847;SDS011;57143;55.940;37.496;2022-07-10T08:41:30;11.73;;;6.93;;
69847;SDS011;57143;55.940;37.496;2022-07-10T08:44:00;12.82;;;7.50;;
69847;SDS011;57143;55.940;37.496;2022-07-10T08:46:27;10.88;;;7.20;;
69847;SDS011;57143;55.940;37.496;2022-07-10T08:48:57;13.13;;;7.80;;
69847;SDS011;57143;55.940;37.496;2022-07-10T08:51:31;12.45;;;6.80;;
69847;SDS011;57143;55.940;37.496;2022-07-10T08:54:03;11.68;;;7.35;;
69847;SDS011;57143;55.940;37.496;2022-07-10T08:56:31;11.27;;;7.28;;
69847;SDS011;57143;55.940;37.496;2022-07-10T08:58:59;14.10;;;8.18;;
69847;SDS011;57143;55.940;37.496;2022-07-10T09:01:28;11.60;;;7.00;;
69847;SDS011;57143;55.940;37.496;2022-07-10T09:03:55;11.88;;;7.70;;
69847;SDS011;57143;55.940;37.496;2022-07-10T09:06:22;10.93;;;7.85;;
69847;SDS011;57143;55.940;37.496;2022-07-10T09:08:59;12.93;;;7.07;;
69847;SDS011;57143;55.940;37.496;2022-07-10T09:11:30;12.32;;;7.15;;
69847;SDS011;57143;55.940;37.496;2022-07-10T09:13:58;16.23;;;7.97;;
69847;SDS011;57143;55.940;37.496;2022-07-10T09:16:28;12.63;;;7.95;;
69847;SDS011;57143;55.940;37.496;2022-07-10T09:18:56;11.82;;;8.55;;
69847;SDS011;57143;55.940;37.496;2022-07-10T09:21:40;12.30;;;8.23;;
69847;SDS011;57143;55.940;37.496;2022-07-10T09:24:07;12.68;;;8.20;;
69847;SDS011;57143;55.940;37.496;2022-07-10T09:26:36;14.77;;;8.67;;
69847;SDS011;57143;55.940;37.496;2022-07-10T09:29:05;11.98;;;7.93;;
69847;SDS011;57143;55.940;37.496;2022-07-10T09:31:47;10.10;;;7.65;;
69847;SDS011;57143;55.940;37.496;2022-07-10T09:34:15;13.23;;;8.38;;
69847;SDS011;57143;55.940;37.496;2022-07-10T09:36:42;11.68;;;8.07;;
69847;SDS011;57143;55.940;37.496;2022-07-10T09:39:09;12.70;;;7.97;;
69847;SDS011;57143;55.940;37.496;2022-07-10T09:41:38;12.40;;;7.32;;
69847;SDS011;57143;55.940;37.496;2022-07-10T09:44:05;15.70;;;9.00;;
69847;SDS011;57143;55.940;37.496;2022-07-10T09:46:34;13.80;;;8.85;;
69847;SDS011;57143;55.940;37.496;2022-07-10T09:49:08;13.85;;;7.82;;
69847;SDS011;57143;55.940;37.496;2022-07-10T09:51:41;10.67;;;6.90;;
69847;SDS011;57143;55.940;37.496;2022-07-10T09:54:09;12.68;;;7.20;;
69847;SDS011;57143;55.940;37.496;2022-07-10T09:56:43;10.27;;;6.85;;
69847;SDS011;57143;55.940;37.496;2022-07-10T09:59:12;10.55;;;7.60;;
69847;SDS011;57143;55.940;37.496;2022-07-10T10:01:43;10.30;;;6.75;;
69847;SDS011;57143;55.940;37.496;2022-07-10T10:04:12;10.90;;;7.33;;
69847;SDS011;57143;55.940;37.496;2022-07-10T10:06:39;11.75;;;7.57;;
69847;SDS011;57143;55.940;37.496;2022-07-10T10:09:08;12.27;;;7.15;;
69847;SDS011;57143;55.940;37.496;2022-07-10T10:11:43;12.15;;;7.10;;
69847;SDS011;57143;55.940;37.496;2022-07-10T10:14:11;11.52;;;6.90;;
69847;SDS011;57143;55.940;37.496;2022-07-10T10:16:43;8.93;;;5.67;;
69847;SDS011;57143;55.940;37.496;2022-07-10T10:19:11;7.72;;;5.38;;
69847;SDS011;57143;55.940;37.496;2022-07-10T10:21:58;10.10;;;6.25;;
69847;SDS011;57143;55.940;37.496;2022-07-10T10:24:27;12.07;;;6.57;;
69847;SDS011;57143;55.940;37.496;2022-07-10T10:27:01;9.73;;;6.25;;
69847;SDS011;57143;55.940;37.496;2022-07-10T10:29:31;10.77;;;5.70;;
69847;SDS011;57143;55.940;37.496;2022-07-10T10:31:58;8.20;;;5.40;;
69847;SDS011;57143;55.940;37.496;2022-07-10T10:34:38;10.77;;;5.25;;
69847;SDS011;57143;55.940;37.496;2022-07-10T10:37:07;9.02;;;6.00;;
69847;SDS011;57143;55.940;37.496;2022-07-10T10:40:03;7.88;;;5.40;;
69847;SDS011;57143;55.940;37.496;2022-07-10T10:42:34;8.07;;;5.47;;
69847;SDS011;57143;55.940;37.496;2022-07-10T10:47:59;9.55;;;5.68;;
69847;SDS011;57143;55.940;37.496;2022-07-10T10:50:38;10.35;;;5.28;;
69847;SDS011;57143;55.940;37.496;2022-07-10T10:53:15;12.10;;;6.15;;
69847;SDS011;57143;55.940;37.496;2022-07-10T10:58:48;12.00;;;5.38;;
69847;SDS011;57143;55.940;37.496;2022-07-10T11:01:25;8.45;;;5.03;;
69847;SDS011;57143;55.940;37.496;2022-07-10T11:04:15;7.40;;;4.97;;
69847;SDS011;57143;55.940;37.496;2022-07-10T11:06:44;8.10;;;4.63;;
69847;SDS011;57143;55.940;37.496;2022-07-10T11:09:23;9.70;;;4.60;;
69847;SDS011;57143;55.940;37.496;2022-07-10T11:12:01;8.68;;;4.40;;
69847;SDS011;57143;55.940;37.496;2022-07-10T11:14:33;7.60;;;4.90;;
69847;SDS011;57143;55.940;37.496;2022-07-10T11:17:03;7.18;;;4.00;;
69847;SDS011;57143;55.940;37.496;2022-07-10T11:19:31;8.93;;;4.35;;
69847;SDS011;57143;55.940;37.496;2022-07-10T11:22:05;8.63;;;3.80;;
69847;SDS011;57143;55.940;37.496;2022-07-10T11:27:53;10.75;;;4.00;;
69847;SDS011;57143;55.940;37.496;2022-07-10T11:30:42;7.47;;;3.30;;
69847;SDS011;57143;55.940;37.496;2022-07-10T11:33:10;8.13;;;3.70;;
69847;SDS011;57143;55.940;37.496;2022-07-10T11:35:38;7.70;;;3.53;;
69847;SDS011;57143;55.940;37.496;2022-07-10T11:38:05;6.47;;;3.58;;
69847;SDS011;57143;55.940;37.496;2022-07-10T11:40:36;7.55;;;3.72;;
69847;SDS011;57143;55.940;37.496;2022-07-10T11:43:03;7.55;;;3.58;;
69847;SDS011;57143;55.940;37.496;2022-07-10T11:45:33;7.25;;;4.40;;
69847;SDS011;57143;55.940;37.496;2022-07-10T11:48:03;7.80;;;3.70;;
69847;SDS011;57143;55.940;37.496;2022-07-10T11:50:34;6.97;;;4.10;;
69847;SDS011;57143;55.940;37.496;2022-07-10T11:53:02;9.15;;;4.88;;
69847;SDS011;57143;55.940;37.496;2022-07-10T11:55:30;7.68;;;3.80;;
69847;SDS011;57143;55.940;37.496;2022-07-10T11:58:13;8.80;;;3.63;;
69847;SDS011;57143;55.940;37.496;2022-07-10T12:00:41;6.97;;;3.80;;
69847;SDS011;57143;55.940;37.496;2022-07-10T12:03:16;8.48;;;4.25;;
69847;SDS011;57143;55.940;37.496;2022-07-10T12:05:45;8.23;;;3.80;;
69847;SDS011;57143;55.940;37.496;2022-07-10T12:08:13;7.47;;;3.53;;
69847;SDS011;57143;55.940;37.496;2022-07-10T12:10:41;7.68;;;3.55;;
69847;SDS011;57143;55.940;37.496;2022-07-10T12:13:08;7.67;;;3.20;;
69847;SDS011;57143;55.940;37.496;2022-07-10T12:15:39;7.35;;;3.58;;
69847;SDS011;57143;55.940;37.496;2022-07-10T12:18:08;8.63;;;3.65;;
69847;SDS011;57143;55.940;37.496;2022-07-10T12:20:41;7.13;;;3.60;;
69847;SDS011;57143;55.940;37.496;2022-07-10T12:23:10;7.20;;;3.72;;
69847;SDS011;57143;55.940;37.496;2022-07-10T12:25:41;9.37;;;4.30;;
69847;SDS011;57143;55.940;37.496;2022-07-10T12:28:08;9.02;;;3.97;;
69847;SDS011;57143;55.940;37.496;2022-07-10T12:30:40;7.32;;;3.30;;
69847;SDS011;57143;55.940;37.496;2022-07-10T12:33:08;7.68;;;3.15;;
69847;SDS011;57143;55.940;37.496;2022-07-10T12:35:45;9.65;;;3.25;;
69847;SDS011;57143;55.940;37.496;2022-07-10T12:38:17;7.67;;;3.80;;
69847;SDS011;57143;55.940;37.496;2022-07-10T12:40:44;7.60;;;3.50;;
69847;SDS011;57143;55.940;37.496;2022-07-10T12:43:12;6.50;;;3.78;;
69847;SDS011;57143;55.940;37.496;2022-07-10T12:45:40;8.52;;;3.80;;
69847;SDS011;57143;55.940;37.496;2022-07-10T12:48:20;8.25;;;3.63;;
69847;SDS011;57143;55.940;37.496;2022-07-10T12:50:49;8.33;;;3.60;;
69847;SDS011;57143;55.940;37.496;2022-07-10T12:53:16;9.60;;;3.50;;
69847;SDS011;57143;55.940;37.496;2022-07-10T12:55:43;6.53;;;3.30;;
69847;SDS011;57143;55.940;37.496;2022-07-10T12:58:11;8.05;;;3.88;;
69847;SDS011;57143;55.940;37.496;2022-07-10T13:00:45;6.65;;;3.33;;
69847;SDS011;57143;55.940;37.496;2022-07-10T13:03:17;7.60;;;3.60;;
69847;SDS011;57143;55.940;37.496;2022-07-10T13:05:47;10.45;;;3.53;;
69847;SDS011;57143;55.940;37.496;2022-07-10T13:08:15;8.70;;;3.95;;
69847;SDS011;57143;55.940;37.496;2022-07-10T13:10:45;6.43;;;3.92;;
69847;SDS011;57143;55.940;37.496;2022-07-10T13:13:14;7.45;;;4.20;;
69847;SDS011;57143;55.940;37.496;2022-07-10T13:15:43;7.17;;;3.90;;
69847;SDS011;57143;55.940;37.496;2022-07-10T13:18:15;8.10;;;4.07;;
69847;SDS011;57143;55.940;37.496;2022-07-10T13:20:43;9.85;;;4.90;;
69847;SDS011;57143;55.940;37.496;2022-07-10T13:23:10;7.13;;;3.80;;
69847;SDS011;57143;55.940;37.496;2022-07-10T13:25:38;7.70;;;4.80;;
69847;SDS011;57143;55.940;37.496;2022-07-10T13:28:05;7.27;;;3.97;;
69847;SDS011;57143;55.940;37.496;2022-07-10T13:30:33;9.05;;;4.10;;
69847;SDS011;57143;55.940;37.496;2022-07-10T13:33:02;8.80;;;5.20;;
69847;SDS011;57143;55.940;37.496;2022-07-10T13:35:30;7.50;;;4.35;;
69847;SDS011;57143;55.940;37.496;2022-07-10T13:37:59;8.35;;;4.45;;
69847;SDS011;57143;55.940;37.496;2022-07-10T13:40:28;9.23;;;4.50;;
69847;SDS011;57143;55.940;37.496;2022-07-10T13:42:55;9.18;;;4.88;;
69847;SDS011;57143;55.940;37.496;2022-07-10T13:45:22;8.65;;;4.53;;
69847;SDS011;57143;55.940;37.496;2022-07-10T13:47:52;7.57;;;4.15;;
69847;SDS011;57143;55.940;37.496;2022-07-10T13:50:21;7.22;;;4.40;;
69847;SDS011;57143;55.940;37.496;2022-07-10T13:52:48;6.83;;;4.00;;
69847;SDS011;57143;55.940;37.496;2022-07-10T13:55:16;13.18;;;4.18;;
69847;SDS011;57143;55.940;37.496;2022-07-10T13:57:43;9.25;;;3.58;;
69847;SDS011;57143;55.940;37.496;2022-07-10T14:00:10;10.68;;;4.10;;
69847;SDS011;57143;55.940;37.496;2022-07-10T14:02:38;9.65;;;3.90;;
69847;SDS011;57143;55.940;37.496;2022-07-10T14:05:06;14.07;;;6.50;;
69847;SDS011;57143;55.940;37.496;2022-07-10T14:07:36;6.53;;;3.72;;
69847;SDS011;57143;55.940;37.496;2022-07-10T14:10:04;7.18;;;3.78;;
69847;SDS011;57143;55.940;37.496;2022-07-10T14:12:31;9.10;;;3.90;;
69847;SDS011;57143;55.940;37.496;2022-07-10T14:14:58;8.32;;;4.00;;
69847;SDS011;57143;55.940;37.496;2022-07-10T14:17:26;6.47;;;4.20;;
69847;SDS011;57143;55.940;37.496;2022-07-10T14:19:55;8.85;;;3.63;;
69847;SDS011;57143;55.940;37.496;2022-07-10T14:22:22;9.05;;;4.15;;
69847;SDS011;57143;55.940;37.496;2022-07-10T14:24:51;10.45;;;4.00;;
69847;SDS011;57143;55.940;37.496;2022-07-10T14:27:19;8.50;;;4.30;;
69847;SDS011;57143;55.940;37.496;2022-07-10T14:29:46;7.93;;;3.30;;
69847;SDS011;57143;55.940;37.496;2022-07-10T14:32:13;7.90;;;4.05;;
69847;SDS011;57143;55.940;37.496;2022-07-10T14:34:42;8.32;;;4.10;;
69847;SDS011;57143;55.940;37.496;2022-07-10T14:37:09;9.30;;;3.85;;
69847;SDS011;57143;55.940;37.496;2022-07-10T14:39:38;11.63;;;4.82;;
69847;SDS011;57143;55.940;37.496;2022-07-10T14:42:07;9.50;;;4.87;;
69847;SDS011;57143;55.940;37.496;2022-07-10T14:44:35;9.27;;;3.80;;
69847;SDS011;57143;55.940;37.496;2022-07-10T14:47:03;8.65;;;5.05;;